sensor_id;sensor_type;location;lat;lon;timestamp;P1;durP1;ratioP1;P2;durP2;ratioP2
78004;SDS011;67209;51.698;-0.292;2023-02-27T00:02:19;3.85;;;1.42;;
78004;SDS011;67209;51.698;-0.292;2023-02-27T00:04:45;2.10;;;1.38;;
78004;SDS011;67209;51.698;-0.292;2023-02-27T00:07:11;2.65;;;1.17;;
78004;SDS011;67209;51.698;-0.292;2023-02-27T00:09:37;2.65;;;1.52;;
78004;SDS011;67209;51.698;-0.292;2023-02-27T00:12:06;7.72;;;1.42;;
78004;SDS011;67209;51.698;-0.292;2023-02-27T00:14:32;2.65;;;1.10;;
78004;SDS011;67209;51.698;-0.292;2023-02-27T00:16:58;3.30;;;1.05;;
78004;SDS011;67209;51.698;-0.292;2023-02-27T00:19:24;3.65;;;1.52;;
78004;SDS011;67209;51.698;-0.292;2023-02-27T00:21:50;2.10;;;0.90;;
78004;SDS011;67209;51.698;-0.292;2023-02-27T00:24:16;7.68;;;1.50;;
78004;SDS011;67209;51.698;-0.292;2023-02-27T00:26:43;3.38;;;1.40;;
78004;SDS011;67209;51.698;-0.292;2023-02-27T00:29:09;3.45;;;1.15;;
78004;SDS011;67209;51.698;-0.292;2023-02-27T00:31:35;5.60;;;1.15;;
78004;SDS011;67209;51.698;-0.292;2023-02-27T00:34:01;6.93;;;1.27;;
78004;SDS011;67209;51.698;-0.292;2023-02-27T00:36:28;5.35;;;1.33;;
78004;SDS011;67209;51.698;-0.292;2023-02-27T00:38:54;4.10;;;1.75;;
78004;SDS011;67209;51.698;-0.292;2023-02-27T00:41:20;2.15;;;1.38;;
78004;SDS011;67209;51.698;-0.292;2023-02-27T00:43:46;7.53;;;2.03;;
78004;SDS011;67209;51.698;-0.292;2023-02-27T00:46:12;3.90;;;1.20;;
78004;SDS011;67209;51.698;-0.292;2023-02-27T00:48:38;5.25;;;1.42;;
78004;SDS011;67209;51.698;-0.292;2023-02-27T00:51:04;5.70;;;1.60;;
78004;SDS011;67209;51.698;-0.292;2023-02-27T00:53:30;6.03;;;1.38;;
78004;SDS011;67209;51.698;-0.292;2023-02-27T00:55:56;4.45;;;1.25;;
78004;SDS011;67209;51.698;-0.292;2023-02-27T00:58:22;3.58;;;1.70;;
78004;SDS011;67209;51.698;-0.292;2023-02-27T01:00:48;3.63;;;1.60;;
78004;SDS011;67209;51.698;-0.292;2023-02-27T01:03:14;5.15;;;1.60;;
78004;SDS011;67209;51.698;-0.292;2023-02-27T01:05:40;4.20;;;1.30;;
78004;SDS011;67209;51.698;-0.292;2023-02-27T01:08:06;3.50;;;1.35;;
78004;SDS011;67209;51.698;-0.292;2023-02-27T01:10:32;2.40;;;1.33;;
78004;SDS011;67209;51.698;-0.292;2023-02-27T01:12:58;2.20;;;1.05;;
78004;SDS011;67209;51.698;-0.292;2023-02-27T01:15:24;4.50;;;1.73;;
78004;SDS011;67209;51.698;-0.292;2023-02-27T01:17:50;4.50;;;1.38;;
78004;SDS011;67209;51.698;-0.292;2023-02-27T01:20:16;4.07;;;1.20;;
78004;SDS011;67209;51.698;-0.292;2023-02-27T01:22:42;7.05;;;1.80;;
78004;SDS011;67209;51.698;-0.292;2023-02-27T01:25:08;5.15;;;1.42;;
78004;SDS011;67209;51.698;-0.292;2023-02-27T01:27:35;2.22;;;1.15;;
78004;SDS011;67209;51.698;-0.292;2023-02-27T01:30:01;4.28;;;1.60;;
78004;SDS011;67209;51.698;-0.292;2023-02-27T01:32:27;4.53;;;1.77;;
78004;SDS011;67209;51.698;-0.292;2023-02-27T01:34:53;4.40;;;1.60;;
78004;SDS011;67209;51.698;-0.292;2023-02-27T01:37:19;3.30;;;1.50;;
78004;SDS011;67209;51.698;-0.292;2023-02-27T01:39:45;5.90;;;2.10;;
78004;SDS011;67209;51.698;-0.292;2023-02-27T01:42:19;4.25;;;1.60;;
78004;SDS011;67209;51.698;-0.292;2023-02-27T01:45:05;2.33;;;1.33;;
78004;SDS011;67209;51.698;-0.292;2023-02-27T01:47:32;5.10;;;1.48;;
78004;SDS011;67209;51.698;-0.292;2023-02-27T01:49:58;8.85;;;1.70;;
78004;SDS011;67209;51.698;-0.292;2023-02-27T01:52:24;5.13;;;1.30;;
78004;SDS011;67209;51.698;-0.292;2023-02-27T01:54:50;3.97;;;1.90;;
78004;SDS011;67209;51.698;-0.292;2023-02-27T01:57:17;3.25;;;1.42;;
78004;SDS011;67209;51.698;-0.292;2023-02-27T01:59:43;4.70;;;1.55;;
78004;SDS011;67209;51.698;-0.292;2023-02-27T02:04:54;4.50;;;1.33;;
78004;SDS011;67209;51.698;-0.292;2023-02-27T02:07:21;4.10;;;1.30;;
78004;SDS011;67209;51.698;-0.292;2023-02-27T02:09:50;3.28;;;1.30;;
78004;SDS011;67209;51.698;-0.292;2023-02-27T02:12:18;2.65;;;1.38;;
78004;SDS011;67209;51.698;-0.292;2023-02-27T02:14:45;2.70;;;1.27;;
78004;SDS011;67209;51.698;-0.292;2023-02-27T02:17:23;4.97;;;1.73;;
78004;SDS011;67209;51.698;-0.292;2023-02-27T02:19:54;4.05;;;1.27;;
78004;SDS011;67209;51.698;-0.292;2023-02-27T02:27:46;3.55;;;1.45;;
78004;SDS011;67209;51.698;-0.292;2023-02-27T02:32:57;5.07;;;1.70;;
78004;SDS011;67209;51.698;-0.292;2023-02-27T02:40:44;3.22;;;1.20;;
78004;SDS011;67209;51.698;-0.292;2023-02-27T02:43:36;3.65;;;1.50;;
78004;SDS011;67209;51.698;-0.292;2023-02-27T02:46:38;5.22;;;1.85;;
78004;SDS011;67209;51.698;-0.292;2023-02-27T02:49:00;3.53;;;1.65;;
78004;SDS011;67209;51.698;-0.292;2023-02-27T02:54:09;5.82;;;1.48;;
78004;SDS011;67209;51.698;-0.292;2023-02-27T02:56:45;4.07;;;1.23;;
78004;SDS011;67209;51.698;-0.292;2023-02-27T02:59:22;3.80;;;1.60;;
78004;SDS011;67209;51.698;-0.292;2023-02-27T03:04:26;6.00;;;1.67;;
78004;SDS011;67209;51.698;-0.292;2023-02-27T03:06:55;4.03;;;1.52;;
78004;SDS011;67209;51.698;-0.292;2023-02-27T03:09:29;3.60;;;1.33;;
78004;SDS011;67209;51.698;-0.292;2023-02-27T03:11:56;2.08;;;1.10;;
78004;SDS011;67209;51.698;-0.292;2023-02-27T03:14:33;4.45;;;1.65;;
78004;SDS011;67209;51.698;-0.292;2023-02-27T03:19:28;3.17;;;1.30;;
78004;SDS011;67209;51.698;-0.292;2023-02-27T03:21:59;6.80;;;1.92;;
78004;SDS011;67209;51.698;-0.292;2023-02-27T03:24:27;10.15;;;2.55;;
78004;SDS011;67209;51.698;-0.292;2023-02-27T03:26:55;2.53;;;1.25;;
78004;SDS011;67209;51.698;-0.292;2023-02-27T03:29:29;5.75;;;1.70;;
78004;SDS011;67209;51.698;-0.292;2023-02-27T03:31:57;5.65;;;1.67;;
78004;SDS011;67209;51.698;-0.292;2023-02-27T03:34:28;4.05;;;1.90;;
78004;SDS011;67209;51.698;-0.292;2023-02-27T03:39:27;4.68;;;1.77;;
78004;SDS011;67209;51.698;-0.292;2023-02-27T03:42:01;3.00;;;1.63;;
78004;SDS011;67209;51.698;-0.292;2023-02-27T03:47:04;2.45;;;1.10;;
78004;SDS011;67209;51.698;-0.292;2023-02-27T03:49:30;4.03;;;1.55;;
78004;SDS011;67209;51.698;-0.292;2023-02-27T03:51:56;2.28;;;1.48;;
78004;SDS011;67209;51.698;-0.292;2023-02-27T03:54:24;3.40;;;1.48;;
78004;SDS011;67209;51.698;-0.292;2023-02-27T03:56:54;5.32;;;1.73;;
78004;SDS011;67209;51.698;-0.292;2023-02-27T03:59:22;2.35;;;1.30;;
78004;SDS011;67209;51.698;-0.292;2023-02-27T04:01:48;4.25;;;2.25;;
78004;SDS011;67209;51.698;-0.292;2023-02-27T04:04:15;7.22;;;2.00;;
78004;SDS011;67209;51.698;-0.292;2023-02-27T04:06:44;4.75;;;1.85;;
78004;SDS011;67209;51.698;-0.292;2023-02-27T04:09:35;3.42;;;1.70;;
78004;SDS011;67209;51.698;-0.292;2023-02-27T04:12:18;3.10;;;1.15;;
78004;SDS011;67209;51.698;-0.292;2023-02-27T04:15:34;5.80;;;1.98;;
78004;SDS011;67209;51.698;-0.292;2023-02-27T04:17:38;2.97;;;1.40;;
78004;SDS011;67209;51.698;-0.292;2023-02-27T04:20:15;3.13;;;1.40;;
78004;SDS011;67209;51.698;-0.292;2023-02-27T04:22:50;3.10;;;1.65;;
78004;SDS011;67209;51.698;-0.292;2023-02-27T04:25:34;6.25;;;1.92;;
78004;SDS011;67209;51.698;-0.292;2023-02-27T04:30:37;4.95;;;2.20;;
78004;SDS011;67209;51.698;-0.292;2023-02-27T04:33:06;4.13;;;1.95;;
78004;SDS011;67209;51.698;-0.292;2023-02-27T04:35:46;3.42;;;1.90;;
78004;SDS011;67209;51.698;-0.292;2023-02-27T04:40:56;3.17;;;1.65;;
78004;SDS011;67209;51.698;-0.292;2023-02-27T04:43:23;5.68;;;2.00;;
78004;SDS011;67209;51.698;-0.292;2023-02-27T04:45:49;3.13;;;1.80;;
78004;SDS011;67209;51.698;-0.292;2023-02-27T04:50:59;6.28;;;1.60;;
78004;SDS011;67209;51.698;-0.292;2023-02-27T04:53:29;4.18;;;1.73;;
78004;SDS011;67209;51.698;-0.292;2023-02-27T04:56:00;4.85;;;2.88;;
78004;SDS011;67209;51.698;-0.292;2023-02-27T04:58:32;2.90;;;1.50;;
78004;SDS011;67209;51.698;-0.292;2023-02-27T05:01:00;3.92;;;1.52;;
78004;SDS011;67209;51.698;-0.292;2023-02-27T05:03:29;3.83;;;1.90;;
78004;SDS011;67209;51.698;-0.292;2023-02-27T05:05:57;7.50;;;2.10;;
78004;SDS011;67209;51.698;-0.292;2023-02-27T05:10:54;5.15;;;1.50;;
78004;SDS011;67209;51.698;-0.292;2023-02-27T05:13:31;4.45;;;2.00;;
78004;SDS011;67209;51.698;-0.292;2023-02-27T05:16:02;3.33;;;1.67;;
78004;SDS011;67209;51.698;-0.292;2023-02-27T05:18:29;5.20;;;1.70;;
78004;SDS011;67209;51.698;-0.292;2023-02-27T05:23:27;6.72;;;2.15;;
78004;SDS011;67209;51.698;-0.292;2023-02-27T05:25:59;3.70;;;1.52;;
78004;SDS011;67209;51.698;-0.292;2023-02-27T05:28:29;1.25;;;1.10;;
78004;SDS011;67209;51.698;-0.292;2023-02-27T05:33:29;5.07;;;1.98;;
78004;SDS011;67209;51.698;-0.292;2023-02-27T05:35:59;4.93;;;2.13;;
78004;SDS011;67209;51.698;-0.292;2023-02-27T05:41:00;4.07;;;1.75;;
78004;SDS011;67209;51.698;-0.292;2023-02-27T05:43:27;5.07;;;2.15;;
78004;SDS011;67209;51.698;-0.292;2023-02-27T05:45:55;6.55;;;1.83;;
78004;SDS011;67209;51.698;-0.292;2023-02-27T05:48:24;6.72;;;2.30;;
78004;SDS011;67209;51.698;-0.292;2023-02-27T05:50:51;6.57;;;1.83;;
78004;SDS011;67209;51.698;-0.292;2023-02-27T05:53:19;5.60;;;2.13;;
78004;SDS011;67209;51.698;-0.292;2023-02-27T06:03:06;6.57;;;2.30;;
78004;SDS011;67209;51.698;-0.292;2023-02-27T06:05:32;5.55;;;2.20;;
78004;SDS011;67209;51.698;-0.292;2023-02-27T06:08:00;3.47;;;1.45;;
78004;SDS011;67209;51.698;-0.292;2023-02-27T06:10:26;7.40;;;2.00;;
78004;SDS011;67209;51.698;-0.292;2023-02-27T06:12:52;6.55;;;1.95;;
78004;SDS011;67209;51.698;-0.292;2023-02-27T06:15:18;3.22;;;2.40;;
78004;SDS011;67209;51.698;-0.292;2023-02-27T06:17:44;6.00;;;2.20;;
78004;SDS011;67209;51.698;-0.292;2023-02-27T06:20:10;5.53;;;2.25;;
78004;SDS011;67209;51.698;-0.292;2023-02-27T06:22:36;5.20;;;2.33;;
78004;SDS011;67209;51.698;-0.292;2023-02-27T06:25:02;7.82;;;2.50;;
78004;SDS011;67209;51.698;-0.292;2023-02-27T06:27:29;3.58;;;1.52;;
78004;SDS011;67209;51.698;-0.292;2023-02-27T06:29:55;7.97;;;2.13;;
78004;SDS011;67209;51.698;-0.292;2023-02-27T06:32:21;8.77;;;1.98;;
78004;SDS011;67209;51.698;-0.292;2023-02-27T06:34:49;6.18;;;2.00;;
78004;SDS011;67209;51.698;-0.292;2023-02-27T06:37:15;4.47;;;2.15;;
78004;SDS011;67209;51.698;-0.292;2023-02-27T06:39:41;3.70;;;1.58;;
78004;SDS011;67209;51.698;-0.292;2023-02-27T06:42:07;7.47;;;1.83;;
78004;SDS011;67209;51.698;-0.292;2023-02-27T06:44:33;5.85;;;1.88;;
78004;SDS011;67209;51.698;-0.292;2023-02-27T06:46:59;6.30;;;2.65;;
78004;SDS011;67209;51.698;-0.292;2023-02-27T06:49:25;7.63;;;2.42;;
78004;SDS011;67209;51.698;-0.292;2023-02-27T06:51:51;4.47;;;2.05;;
78004;SDS011;67209;51.698;-0.292;2023-02-27T06:54:17;4.78;;;2.33;;
78004;SDS011;67209;51.698;-0.292;2023-02-27T06:56:43;5.45;;;2.45;;
78004;SDS011;67209;51.698;-0.292;2023-02-27T06:59:09;5.72;;;2.30;;
78004;SDS011;67209;51.698;-0.292;2023-02-27T07:01:35;6.05;;;2.20;;
78004;SDS011;67209;51.698;-0.292;2023-02-27T07:04:02;5.10;;;2.53;;
78004;SDS011;67209;51.698;-0.292;2023-02-27T07:06:28;4.40;;;2.17;;
78004;SDS011;67209;51.698;-0.292;2023-02-27T07:08:54;6.07;;;2.33;;
78004;SDS011;67209;51.698;-0.292;2023-02-27T07:11:20;6.75;;;3.10;;
78004;SDS011;67209;51.698;-0.292;2023-02-27T07:13:46;10.07;;;2.13;;
78004;SDS011;67209;51.698;-0.292;2023-02-27T07:16:12;7.03;;;2.75;;
78004;SDS011;67209;51.698;-0.292;2023-02-27T07:18:38;26.35;;;4.00;;
78004;SDS011;67209;51.698;-0.292;2023-02-27T07:21:05;50.67;;;5.65;;
78004;SDS011;67209;51.698;-0.292;2023-02-27T07:23:31;4.85;;;1.88;;
78004;SDS011;67209;51.698;-0.292;2023-02-27T07:25:57;32.47;;;4.13;;
78004;SDS011;67209;51.698;-0.292;2023-02-27T07:28:23;16.33;;;2.67;;
78004;SDS011;67209;51.698;-0.292;2023-02-27T07:30:51;6.13;;;1.27;;
78004;SDS011;67209;51.698;-0.292;2023-02-27T07:33:18;30.55;;;2.78;;
78004;SDS011;67209;51.698;-0.292;2023-02-27T07:35:44;8.80;;;1.95;;
78004;SDS011;67209;51.698;-0.292;2023-02-27T07:38:10;5.75;;;2.10;;
78004;SDS011;67209;51.698;-0.292;2023-02-27T07:40:39;4.97;;;1.88;;
78004;SDS011;67209;51.698;-0.292;2023-02-27T07:43:06;25.23;;;3.78;;
78004;SDS011;67209;51.698;-0.292;2023-02-27T07:45:32;25.17;;;3.65;;
78004;SDS011;67209;51.698;-0.292;2023-02-27T07:47:58;19.35;;;3.25;;
78004;SDS011;67209;51.698;-0.292;2023-02-27T07:50:24;4.38;;;2.20;;
78004;SDS011;67209;51.698;-0.292;2023-02-27T07:52:50;25.10;;;3.35;;
78004;SDS011;67209;51.698;-0.292;2023-02-27T07:55:17;5.32;;;2.10;;
78004;SDS011;67209;51.698;-0.292;2023-02-27T07:57:43;32.20;;;4.35;;
78004;SDS011;67209;51.698;-0.292;2023-02-27T08:00:10;7.22;;;2.58;;
78004;SDS011;67209;51.698;-0.292;2023-02-27T08:02:36;7.32;;;1.85;;
78004;SDS011;67209;51.698;-0.292;2023-02-27T08:05:03;33.17;;;3.50;;
78004;SDS011;67209;51.698;-0.292;2023-02-27T08:07:29;39.83;;;5.63;;
78004;SDS011;67209;51.698;-0.292;2023-02-27T08:09:55;9.60;;;2.20;;
78004;SDS011;67209;51.698;-0.292;2023-02-27T08:12:21;9.90;;;2.75;;
78004;SDS011;67209;51.698;-0.292;2023-02-27T08:14:47;3.45;;;2.00;;
78004;SDS011;67209;51.698;-0.292;2023-02-27T08:17:13;23.70;;;3.25;;
78004;SDS011;67209;51.698;-0.292;2023-02-27T08:19:39;82.78;;;8.75;;
78004;SDS011;67209;51.698;-0.292;2023-02-27T08:22:05;62.47;;;6.55;;
78004;SDS011;67209;51.698;-0.292;2023-02-27T08:24:31;41.47;;;4.47;;
78004;SDS011;67209;51.698;-0.292;2023-02-27T08:26:57;8.82;;;2.60;;
78004;SDS011;67209;51.698;-0.292;2023-02-27T08:29:23;16.15;;;3.00;;
78004;SDS011;67209;51.698;-0.292;2023-02-27T08:31:50;4.15;;;1.92;;
78004;SDS011;67209;51.698;-0.292;2023-02-27T08:34:16;10.68;;;2.50;;
78004;SDS011;67209;51.698;-0.292;2023-02-27T08:36:42;9.38;;;2.63;;
78004;SDS011;67209;51.698;-0.292;2023-02-27T08:39:08;9.88;;;2.15;;
78004;SDS011;67209;51.698;-0.292;2023-02-27T08:41:34;8.32;;;2.20;;
78004;SDS011;67209;51.698;-0.292;2023-02-27T08:44:01;2.42;;;0.98;;
78004;SDS011;67209;51.698;-0.292;2023-02-27T08:46:27;11.02;;;3.15;;
78004;SDS011;67209;51.698;-0.292;2023-02-27T08:48:53;5.28;;;2.38;;
78004;SDS011;67209;51.698;-0.292;2023-02-27T08:51:19;6.05;;;2.38;;
78004;SDS011;67209;51.698;-0.292;2023-02-27T08:53:45;6.10;;;2.33;;
78004;SDS011;67209;51.698;-0.292;2023-02-27T08:56:11;7.60;;;2.55;;
78004;SDS011;67209;51.698;-0.292;2023-02-27T08:58:37;4.45;;;2.58;;
78004;SDS011;67209;51.698;-0.292;2023-02-27T09:01:03;20.52;;;3.40;;
78004;SDS011;67209;51.698;-0.292;2023-02-27T09:03:29;4.72;;;2.53;;
78004;SDS011;67209;51.698;-0.292;2023-02-27T09:05:55;9.43;;;2.05;;
78004;SDS011;67209;51.698;-0.292;2023-02-27T09:08:21;5.72;;;1.33;;
78004;SDS011;67209;51.698;-0.292;2023-02-27T09:10:48;7.10;;;1.90;;
78004;SDS011;67209;51.698;-0.292;2023-02-27T09:13:14;6.75;;;2.95;;
78004;SDS011;67209;51.698;-0.292;2023-02-27T09:15:40;16.88;;;4.13;;
78004;SDS011;67209;51.698;-0.292;2023-02-27T09:18:06;3.17;;;1.85;;
78004;SDS011;67209;51.698;-0.292;2023-02-27T09:20:33;19.50;;;6.78;;
78004;SDS011;67209;51.698;-0.292;2023-02-27T09:23:04;17.00;;;7.57;;
78004;SDS011;67209;51.698;-0.292;2023-02-27T09:25:30;8.85;;;3.78;;
78004;SDS011;67209;51.698;-0.292;2023-02-27T09:27:56;16.08;;;6.25;;
78004;SDS011;67209;51.698;-0.292;2023-02-27T09:30:23;12.65;;;4.13;;
78004;SDS011;67209;51.698;-0.292;2023-02-27T09:32:49;6.13;;;2.10;;
78004;SDS011;67209;51.698;-0.292;2023-02-27T09:35:15;2.72;;;1.75;;
78004;SDS011;67209;51.698;-0.292;2023-02-27T09:37:44;5.95;;;1.67;;
78004;SDS011;67209;51.698;-0.292;2023-02-27T09:40:19;2.00;;;1.17;;
78004;SDS011;67209;51.698;-0.292;2023-02-27T09:42:46;4.50;;;1.40;;
78004;SDS011;67209;51.698;-0.292;2023-02-27T09:45:26;6.85;;;1.52;;
78004;SDS011;67209;51.698;-0.292;2023-02-27T09:47:55;3.45;;;1.42;;
78004;SDS011;67209;51.698;-0.292;2023-02-27T09:50:56;3.13;;;1.40;;
78004;SDS011;67209;51.698;-0.292;2023-02-27T09:55:51;3.53;;;1.15;;
78004;SDS011;67209;51.698;-0.292;2023-02-27T10:00:58;22.35;;;2.47;;
78004;SDS011;67209;51.698;-0.292;2023-02-27T10:08:43;3.13;;;0.82;;
78004;SDS011;67209;51.698;-0.292;2023-02-27T10:11:11;3.17;;;0.70;;
78004;SDS011;67209;51.698;-0.292;2023-02-27T10:13:41;1.63;;;0.70;;
78004;SDS011;67209;51.698;-0.292;2023-02-27T10:16:13;1.98;;;0.55;;
78004;SDS011;67209;51.698;-0.292;2023-02-27T10:21:06;2.85;;;0.68;;
78004;SDS011;67209;51.698;-0.292;2023-02-27T10:23:39;2.83;;;1.20;;
78004;SDS011;67209;51.698;-0.292;2023-02-27T10:26:07;4.05;;;0.70;;
78004;SDS011;67209;51.698;-0.292;2023-02-27T10:28:38;3.20;;;0.70;;
78004;SDS011;67209;51.698;-0.292;2023-02-27T10:31:09;1.15;;;0.65;;
78004;SDS011;67209;51.698;-0.292;2023-02-27T10:33:37;2.17;;;0.77;;
78004;SDS011;67209;51.698;-0.292;2023-02-27T10:36:04;4.63;;;0.80;;
78004;SDS011;67209;51.698;-0.292;2023-02-27T10:39:17;2.30;;;0.55;;
78004;SDS011;67209;51.698;-0.292;2023-02-27T10:41:24;2.45;;;0.50;;
78004;SDS011;67209;51.698;-0.292;2023-02-27T10:43:54;1.35;;;0.50;;
78004;SDS011;67209;51.698;-0.292;2023-02-27T10:46:24;1.90;;;0.70;;
78004;SDS011;67209;51.698;-0.292;2023-02-27T10:48:50;1.95;;;0.60;;
78004;SDS011;67209;51.698;-0.292;2023-02-27T10:53:46;2.70;;;0.47;;
78004;SDS011;67209;51.698;-0.292;2023-02-27T10:56:13;2.67;;;0.77;;
78004;SDS011;67209;51.698;-0.292;2023-02-27T10:58:40;1.60;;;0.60;;
78004;SDS011;67209;51.698;-0.292;2023-02-27T11:01:07;2.40;;;0.50;;
78004;SDS011;67209;51.698;-0.292;2023-02-27T11:03:40;2.50;;;0.50;;
78004;SDS011;67209;51.698;-0.292;2023-02-27T11:08:35;0.70;;;0.38;;
78004;SDS011;67209;51.698;-0.292;2023-02-27T11:11:08;1.45;;;0.50;;
78004;SDS011;67209;51.698;-0.292;2023-02-27T11:13:36;0.98;;;0.30;;
78004;SDS011;67209;51.698;-0.292;2023-02-27T11:16:04;1.23;;;0.63;;
78004;SDS011;67209;51.698;-0.292;2023-02-27T11:18:30;0.68;;;0.40;;
78004;SDS011;67209;51.698;-0.292;2023-02-27T11:21:11;0.88;;;0.45;;
78004;SDS011;67209;51.698;-0.292;2023-02-27T11:23:37;1.85;;;0.30;;
78004;SDS011;67209;51.698;-0.292;2023-02-27T11:26:18;0.88;;;0.60;;
78004;SDS011;67209;51.698;-0.292;2023-02-27T11:28:45;0.40;;;0.32;;
78004;SDS011;67209;51.698;-0.292;2023-02-27T11:31:19;1.17;;;0.40;;
78004;SDS011;67209;51.698;-0.292;2023-02-27T11:33:51;0.47;;;0.40;;
78004;SDS011;67209;51.698;-0.292;2023-02-27T11:36:18;1.48;;;0.35;;
78004;SDS011;67209;51.698;-0.292;2023-02-27T11:38:53;4.20;;;0.80;;
78004;SDS011;67209;51.698;-0.292;2023-02-27T11:41:29;2.00;;;0.40;;
78004;SDS011;67209;51.698;-0.292;2023-02-27T11:43:55;1.52;;;0.50;;
78004;SDS011;67209;51.698;-0.292;2023-02-27T11:46:23;1.35;;;0.60;;
78004;SDS011;67209;51.698;-0.292;2023-02-27T11:54:07;4.80;;;0.70;;
78004;SDS011;67209;51.698;-0.292;2023-02-27T11:56:36;1.90;;;0.70;;
78004;SDS011;67209;51.698;-0.292;2023-02-27T12:01:37;1.05;;;0.57;;
78004;SDS011;67209;51.698;-0.292;2023-02-27T12:06:39;0.88;;;0.35;;
78004;SDS011;67209;51.698;-0.292;2023-02-27T12:09:11;2.50;;;0.80;;
78004;SDS011;67209;51.698;-0.292;2023-02-27T12:11:43;0.73;;;0.30;;
78004;SDS011;67209;51.698;-0.292;2023-02-27T12:14:15;1.70;;;0.70;;
78004;SDS011;67209;51.698;-0.292;2023-02-27T12:16:44;4.97;;;0.98;;
78004;SDS011;67209;51.698;-0.292;2023-02-27T12:19:18;2.53;;;0.73;;
78004;SDS011;67209;51.698;-0.292;2023-02-27T12:21:51;2.00;;;0.60;;
78004;SDS011;67209;51.698;-0.292;2023-02-27T12:24:29;1.20;;;0.47;;
78004;SDS011;67209;51.698;-0.292;2023-02-27T12:29:35;3.47;;;1.00;;
78004;SDS011;67209;51.698;-0.292;2023-02-27T12:37:08;2.72;;;0.73;;
78004;SDS011;67209;51.698;-0.292;2023-02-27T12:39:35;0.52;;;0.22;;
78004;SDS011;67209;51.698;-0.292;2023-02-27T12:47:34;3.08;;;0.50;;
78004;SDS011;67209;51.698;-0.292;2023-02-27T12:50:10;0.88;;;0.35;;
78004;SDS011;67209;51.698;-0.292;2023-02-27T13:00:32;3.38;;;0.85;;
78004;SDS011;67209;51.698;-0.292;2023-02-27T13:03:02;0.60;;;0.43;;
78004;SDS011;67209;51.698;-0.292;2023-02-27T13:10:40;2.08;;;0.90;;
78004;SDS011;67209;51.698;-0.292;2023-02-27T13:16:06;1.48;;;0.70;;
78004;SDS011;67209;51.698;-0.292;2023-02-27T13:18:57;3.38;;;0.90;;
78004;SDS011;67209;51.698;-0.292;2023-02-27T13:24:21;2.97;;;0.82;;
78004;SDS011;67209;51.698;-0.292;2023-02-27T13:26:52;1.75;;;0.50;;
78004;SDS011;67209;51.698;-0.292;2023-02-27T13:29:20;3.13;;;1.13;;
78004;SDS011;67209;51.698;-0.292;2023-02-27T13:31:59;1.05;;;0.47;;
78004;SDS011;67209;51.698;-0.292;2023-02-27T13:34:29;6.18;;;1.05;;
78004;SDS011;67209;51.698;-0.292;2023-02-27T13:36:56;2.53;;;0.70;;
78004;SDS011;67209;51.698;-0.292;2023-02-27T13:44:51;3.25;;;0.70;;
78004;SDS011;67209;51.698;-0.292;2023-02-27T13:52:28;2.60;;;0.65;;
78004;SDS011;67209;51.698;-0.292;2023-02-27T13:54:54;0.75;;;0.30;;
78004;SDS011;67209;51.698;-0.292;2023-02-27T13:57:21;1.42;;;0.50;;
78004;SDS011;67209;51.698;-0.292;2023-02-27T14:00:01;1.17;;;0.57;;
78004;SDS011;67209;51.698;-0.292;2023-02-27T14:04:58;2.50;;;0.47;;
78004;SDS011;67209;51.698;-0.292;2023-02-27T14:07:28;1.23;;;0.50;;
78004;SDS011;67209;51.698;-0.292;2023-02-27T14:10:04;3.50;;;0.77;;
78004;SDS011;67209;51.698;-0.292;2023-02-27T14:12:38;1.25;;;0.40;;
78004;SDS011;67209;51.698;-0.292;2023-02-27T14:15:47;2.92;;;0.73;;
78004;SDS011;67209;51.698;-0.292;2023-02-27T14:17:52;1.73;;;0.60;;
78004;SDS011;67209;51.698;-0.292;2023-02-27T14:23:33;2.53;;;0.70;;
78004;SDS011;67209;51.698;-0.292;2023-02-27T14:30:53;2.65;;;0.88;;
78004;SDS011;67209;51.698;-0.292;2023-02-27T14:33:43;2.05;;;0.65;;
78004;SDS011;67209;51.698;-0.292;2023-02-27T14:36:12;1.77;;;0.63;;
78004;SDS011;67209;51.698;-0.292;2023-02-27T14:38:40;2.75;;;0.60;;
78004;SDS011;67209;51.698;-0.292;2023-02-27T14:43:38;1.63;;;0.98;;
78004;SDS011;67209;51.698;-0.292;2023-02-27T14:46:06;3.25;;;1.23;;
78004;SDS011;67209;51.698;-0.292;2023-02-27T14:48:35;3.33;;;0.90;;
78004;SDS011;67209;51.698;-0.292;2023-02-27T14:51:02;3.97;;;0.70;;
78004;SDS011;67209;51.698;-0.292;2023-02-27T14:53:29;2.28;;;0.95;;
78004;SDS011;67209;51.698;-0.292;2023-02-27T14:55:56;0.70;;;0.70;;
78004;SDS011;67209;51.698;-0.292;2023-02-27T14:58:22;1.50;;;0.57;;
78004;SDS011;67209;51.698;-0.292;2023-02-27T15:01:05;1.90;;;0.52;;
78004;SDS011;67209;51.698;-0.292;2023-02-27T15:03:46;1.55;;;0.88;;
78004;SDS011;67209;51.698;-0.292;2023-02-27T15:06:16;4.10;;;0.77;;
78004;SDS011;67209;51.698;-0.292;2023-02-27T15:08:48;0.98;;;0.35;;
78004;SDS011;67209;51.698;-0.292;2023-02-27T15:11:15;2.70;;;0.75;;
78004;SDS011;67209;51.698;-0.292;2023-02-27T15:13:42;2.88;;;0.75;;
78004;SDS011;67209;51.698;-0.292;2023-02-27T15:18:51;3.25;;;0.70;;
78004;SDS011;67209;51.698;-0.292;2023-02-27T15:21:18;0.93;;;0.45;;
78004;SDS011;67209;51.698;-0.292;2023-02-27T15:23:54;3.05;;;0.68;;
78004;SDS011;67209;51.698;-0.292;2023-02-27T15:26:20;0.90;;;0.63;;
78004;SDS011;67209;51.698;-0.292;2023-02-27T15:28:46;2.15;;;0.90;;
78004;SDS011;67209;51.698;-0.292;2023-02-27T15:31:17;2.35;;;0.77;;
78004;SDS011;67209;51.698;-0.292;2023-02-27T15:33:43;4.00;;;0.90;;
78004;SDS011;67209;51.698;-0.292;2023-02-27T15:36:19;10.07;;;1.40;;
78004;SDS011;67209;51.698;-0.292;2023-02-27T15:38:45;2.58;;;1.20;;
78004;SDS011;67209;51.698;-0.292;2023-02-27T15:41:11;1.77;;;1.27;;
78004;SDS011;67209;51.698;-0.292;2023-02-27T15:43:38;3.00;;;1.20;;
78004;SDS011;67209;51.698;-0.292;2023-02-27T15:46:05;2.55;;;1.00;;
78004;SDS011;67209;51.698;-0.292;2023-02-27T15:48:31;2.42;;;0.90;;
78004;SDS011;67209;51.698;-0.292;2023-02-27T15:50:58;1.67;;;0.93;;
78004;SDS011;67209;51.698;-0.292;2023-02-27T15:53:25;4.50;;;1.27;;
78004;SDS011;67209;51.698;-0.292;2023-02-27T15:55:55;1.38;;;0.50;;
78004;SDS011;67209;51.698;-0.292;2023-02-27T15:58:28;2.47;;;1.00;;
78004;SDS011;67209;51.698;-0.292;2023-02-27T16:00:59;1.70;;;1.10;;
78004;SDS011;67209;51.698;-0.292;2023-02-27T16:05:54;3.20;;;1.02;;
78004;SDS011;67209;51.698;-0.292;2023-02-27T16:08:21;3.13;;;0.80;;
78004;SDS011;67209;51.698;-0.292;2023-02-27T16:10:47;2.20;;;0.50;;
78004;SDS011;67209;51.698;-0.292;2023-02-27T16:13:18;5.25;;;0.80;;
78004;SDS011;67209;51.698;-0.292;2023-02-27T16:15:56;2.10;;;0.93;;
78004;SDS011;67209;51.698;-0.292;2023-02-27T16:18:25;2.15;;;1.17;;
78004;SDS011;67209;51.698;-0.292;2023-02-27T16:20:52;0.90;;;0.60;;
78004;SDS011;67209;51.698;-0.292;2023-02-27T16:23:29;1.13;;;0.95;;
78004;SDS011;67209;51.698;-0.292;2023-02-27T16:26:03;1.40;;;0.70;;
78004;SDS011;67209;51.698;-0.292;2023-02-27T16:28:31;2.50;;;0.80;;
78004;SDS011;67209;51.698;-0.292;2023-02-27T16:30:57;4.22;;;1.08;;
78004;SDS011;67209;51.698;-0.292;2023-02-27T16:33:23;1.67;;;0.63;;
78004;SDS011;67209;51.698;-0.292;2023-02-27T16:36:02;4.72;;;1.05;;
78004;SDS011;67209;51.698;-0.292;2023-02-27T16:38:30;3.75;;;0.95;;
78004;SDS011;67209;51.698;-0.292;2023-02-27T16:40:56;1.95;;;1.13;;
78004;SDS011;67209;51.698;-0.292;2023-02-27T16:43:22;3.78;;;1.20;;
78004;SDS011;67209;51.698;-0.292;2023-02-27T16:45:49;2.80;;;1.55;;
78004;SDS011;67209;51.698;-0.292;2023-02-27T16:48:20;6.78;;;2.50;;
78004;SDS011;67209;51.698;-0.292;2023-02-27T16:50:46;4.82;;;1.98;;
78004;SDS011;67209;51.698;-0.292;2023-02-27T16:53:12;7.20;;;1.63;;
78004;SDS011;67209;51.698;-0.292;2023-02-27T16:55:38;2.58;;;1.17;;
78004;SDS011;67209;51.698;-0.292;2023-02-27T16:58:05;3.90;;;1.65;;
78004;SDS011;67209;51.698;-0.292;2023-02-27T17:00:31;2.78;;;0.90;;
78004;SDS011;67209;51.698;-0.292;2023-02-27T17:02:58;4.30;;;1.35;;
78004;SDS011;67209;51.698;-0.292;2023-02-27T17:05:25;1.73;;;0.68;;
78004;SDS011;67209;51.698;-0.292;2023-02-27T17:07:51;2.88;;;0.70;;